sensor_id;sensor_type;location;lat;lon;timestamp;P1;durP1;ratioP1;P2;durP2;ratioP2
22070;SDS011;11200;51.488;6.668;2022-12-07T00:01:34;6.57;;;5.10;;
22070;SDS011;11200;51.488;6.668;2022-12-07T00:04:04;6.65;;;5.90;;
22070;SDS011;11200;51.488;6.668;2022-12-07T00:06:31;6.13;;;5.53;;
22070;SDS011;11200;51.488;6.668;2022-12-07T00:08:58;7.65;;;5.60;;
22070;SDS011;11200;51.488;6.668;2022-12-07T00:11:24;6.03;;;5.43;;
22070;SDS011;11200;51.488;6.668;2022-12-07T00:13:54;7.47;;;6.22;;
22070;SDS011;11200;51.488;6.668;2022-12-07T00:16:25;6.50;;;5.90;;
22070;SDS011;11200;51.488;6.668;2022-12-07T00:18:53;6.05;;;5.40;;
22070;SDS011;11200;51.488;6.668;2022-12-07T00:21:22;6.30;;;5.70;;
22070;SDS011;11200;51.488;6.668;2022-12-07T00:23:50;7.60;;;5.88;;
22070;SDS011;11200;51.488;6.668;2022-12-07T00:26:23;8.75;;;6.32;;
22070;SDS011;11200;51.488;6.668;2022-12-07T00:28:57;6.47;;;5.88;;
22070;SDS011;11200;51.488;6.668;2022-12-07T00:31:25;6.82;;;5.95;;
22070;SDS011;11200;51.488;6.668;2022-12-07T00:33:53;6.75;;;6.00;;
22070;SDS011;11200;51.488;6.668;2022-12-07T00:36:19;6.55;;;5.82;;
22070;SDS011;11200;51.488;6.668;2022-12-07T00:38:47;7.68;;;6.85;;
22070;SDS011;11200;51.488;6.668;2022-12-07T00:41:14;8.30;;;6.15;;
22070;SDS011;11200;51.488;6.668;2022-12-07T00:43:41;7.13;;;6.43;;
22070;SDS011;11200;51.488;6.668;2022-12-07T00:46:08;6.95;;;6.25;;
22070;SDS011;11200;51.488;6.668;2022-12-07T00:48:34;8.23;;;6.72;;
22070;SDS011;11200;51.488;6.668;2022-12-07T00:51:00;7.07;;;6.20;;
22070;SDS011;11200;51.488;6.668;2022-12-07T00:53:27;7.00;;;6.22;;
22070;SDS011;11200;51.488;6.668;2022-12-07T00:55:53;7.05;;;6.35;;
22070;SDS011;11200;51.488;6.668;2022-12-07T00:58:20;7.50;;;6.70;;
22070;SDS011;11200;51.488;6.668;2022-12-07T01:00:46;8.25;;;6.53;;
22070;SDS011;11200;51.488;6.668;2022-12-07T01:03:12;7.78;;;6.70;;
22070;SDS011;11200;51.488;6.668;2022-12-07T01:05:39;6.95;;;6.25;;
22070;SDS011;11200;51.488;6.668;2022-12-07T01:08:05;7.97;;;6.97;;
22070;SDS011;11200;51.488;6.668;2022-12-07T01:10:32;7.43;;;6.70;;
22070;SDS011;11200;51.488;6.668;2022-12-07T01:12:58;6.78;;;6.13;;
22070;SDS011;11200;51.488;6.668;2022-12-07T01:15:24;7.55;;;6.72;;
22070;SDS011;11200;51.488;6.668;2022-12-07T01:17:50;6.90;;;6.20;;
22070;SDS011;11200;51.488;6.668;2022-12-07T01:20:16;7.68;;;6.88;;
22070;SDS011;11200;51.488;6.668;2022-12-07T01:22:42;7.82;;;6.85;;
22070;SDS011;11200;51.488;6.668;2022-12-07T01:25:09;7.15;;;6.45;;
22070;SDS011;11200;51.488;6.668;2022-12-07T01:27:36;7.35;;;6.57;;
22070;SDS011;11200;51.488;6.668;2022-12-07T01:30:02;8.63;;;7.20;;
22070;SDS011;11200;51.488;6.668;2022-12-07T01:32:29;8.50;;;7.15;;
22070;SDS011;11200;51.488;6.668;2022-12-07T01:34:55;7.65;;;6.95;;
22070;SDS011;11200;51.488;6.668;2022-12-07T01:37:21;8.50;;;6.82;;
22070;SDS011;11200;51.488;6.668;2022-12-07T01:39:50;7.40;;;6.45;;
22070;SDS011;11200;51.488;6.668;2022-12-07T01:42:16;8.52;;;6.78;;
22070;SDS011;11200;51.488;6.668;2022-12-07T01:47:43;8.93;;;7.18;;
22070;SDS011;11200;51.488;6.668;2022-12-07T01:50:15;8.52;;;7.05;;
22070;SDS011;11200;51.488;6.668;2022-12-07T01:52:41;7.25;;;6.55;;
22070;SDS011;11200;51.488;6.668;2022-12-07T01:55:10;8.50;;;6.82;;
22070;SDS011;11200;51.488;6.668;2022-12-07T01:57:43;7.47;;;6.68;;
22070;SDS011;11200;51.488;6.668;2022-12-07T02:00:12;8.55;;;6.97;;
22070;SDS011;11200;51.488;6.668;2022-12-07T02:02:41;8.13;;;7.30;;
22070;SDS011;11200;51.488;6.668;2022-12-07T02:05:20;8.00;;;7.03;;
22070;SDS011;11200;51.488;6.668;2022-12-07T02:07:48;7.88;;;6.80;;
22070;SDS011;11200;51.488;6.668;2022-12-07T02:10:16;7.57;;;6.78;;
22070;SDS011;11200;51.488;6.668;2022-12-07T02:12:44;8.00;;;7.07;;
22070;SDS011;11200;51.488;6.668;2022-12-07T02:15:13;7.60;;;6.80;;
22070;SDS011;11200;51.488;6.668;2022-12-07T02:29:13;7.95;;;6.95;;
22070;SDS011;11200;51.488;6.668;2022-12-07T02:31:58;7.35;;;6.65;;
22070;SDS011;11200;51.488;6.668;2022-12-07T02:34:54;8.18;;;6.50;;
22070;SDS011;11200;51.488;6.668;2022-12-07T02:37:35;7.80;;;7.00;;
22070;SDS011;11200;51.488;6.668;2022-12-07T02:43:03;7.72;;;6.80;;
22070;SDS011;11200;51.488;6.668;2022-12-07T02:45:54;8.45;;;6.82;;
22070;SDS011;11200;51.488;6.668;2022-12-07T02:48:29;7.88;;;6.90;;
22070;SDS011;11200;51.488;6.668;2022-12-07T02:50:57;8.30;;;7.28;;
22070;SDS011;11200;51.488;6.668;2022-12-07T02:55:59;8.18;;;6.78;;
22070;SDS011;11200;51.488;6.668;2022-12-07T03:04:12;8.30;;;7.50;;
22070;SDS011;11200;51.488;6.668;2022-12-07T03:07:05;8.15;;;7.35;;
22070;SDS011;11200;51.488;6.668;2022-12-07T03:12:48;6.80;;;6.10;;
22070;SDS011;11200;51.488;6.668;2022-12-07T03:18:12;9.65;;;7.18;;
22070;SDS011;11200;51.488;6.668;2022-12-07T03:20:41;8.95;;;6.68;;
22070;SDS011;11200;51.488;6.668;2022-12-07T03:23:09;8.52;;;7.00;;
22070;SDS011;11200;51.488;6.668;2022-12-07T03:25:41;8.50;;;6.85;;
22070;SDS011;11200;51.488;6.668;2022-12-07T03:28:17;7.80;;;7.00;;
22070;SDS011;11200;51.488;6.668;2022-12-07T03:30:49;7.40;;;6.45;;
22070;SDS011;11200;51.488;6.668;2022-12-07T03:33:27;8.02;;;6.78;;
22070;SDS011;11200;51.488;6.668;2022-12-07T03:37:00;8.27;;;7.25;;
22070;SDS011;11200;51.488;6.668;2022-12-07T03:41:58;7.88;;;7.07;;
22070;SDS011;11200;51.488;6.668;2022-12-07T03:44:26;7.50;;;6.80;;
22070;SDS011;11200;51.488;6.668;2022-12-07T03:49:53;7.63;;;6.35;;
22070;SDS011;11200;51.488;6.668;2022-12-07T03:52:24;7.10;;;6.40;;
22070;SDS011;11200;51.488;6.668;2022-12-07T03:55:08;7.78;;;6.55;;
22070;SDS011;11200;51.488;6.668;2022-12-07T03:57:48;7.45;;;6.43;;
22070;SDS011;11200;51.488;6.668;2022-12-07T04:00:16;7.95;;;6.28;;
22070;SDS011;11200;51.488;6.668;2022-12-07T04:02:43;7.15;;;6.40;;
22070;SDS011;11200;51.488;6.668;2022-12-07T04:05:09;7.00;;;6.30;;
22070;SDS011;11200;51.488;6.668;2022-12-07T04:07:35;6.70;;;6.07;;
22070;SDS011;11200;51.488;6.668;2022-12-07T04:10:01;7.60;;;6.57;;
22070;SDS011;11200;51.488;6.668;2022-12-07T04:12:28;8.27;;;6.90;;
22070;SDS011;11200;51.488;6.668;2022-12-07T04:14:53;8.15;;;6.32;;
22070;SDS011;11200;51.488;6.668;2022-12-07T04:17:19;7.68;;;6.88;;
22070;SDS011;11200;51.488;6.668;2022-12-07T04:19:44;8.32;;;6.82;;
22070;SDS011;11200;51.488;6.668;2022-12-07T04:22:10;8.73;;;7.10;;
22070;SDS011;11200;51.488;6.668;2022-12-07T04:24:36;7.00;;;6.30;;
22070;SDS011;11200;51.488;6.668;2022-12-07T04:27:02;7.63;;;6.40;;
22070;SDS011;11200;51.488;6.668;2022-12-07T04:29:28;7.47;;;6.53;;
22070;SDS011;11200;51.488;6.668;2022-12-07T04:31:53;7.72;;;6.75;;
22070;SDS011;11200;51.488;6.668;2022-12-07T04:34:19;8.13;;;6.40;;
22070;SDS011;11200;51.488;6.668;2022-12-07T04:36:45;7.32;;;6.63;;
22070;SDS011;11200;51.488;6.668;2022-12-07T04:39:25;7.50;;;6.68;;
22070;SDS011;11200;51.488;6.668;2022-12-07T04:41:52;8.30;;;6.75;;
22070;SDS011;11200;51.488;6.668;2022-12-07T04:44:18;7.95;;;6.85;;
22070;SDS011;11200;51.488;6.668;2022-12-07T04:46:44;7.50;;;6.47;;
22070;SDS011;11200;51.488;6.668;2022-12-07T04:49:11;7.95;;;6.93;;
22070;SDS011;11200;51.488;6.668;2022-12-07T04:51:37;8.63;;;6.30;;
22070;SDS011;11200;51.488;6.668;2022-12-07T04:54:03;9.27;;;7.40;;
22070;SDS011;11200;51.488;6.668;2022-12-07T04:56:29;8.35;;;7.15;;
22070;SDS011;11200;51.488;6.668;2022-12-07T04:58:54;7.85;;;6.90;;
22070;SDS011;11200;51.488;6.668;2022-12-07T05:01:20;7.32;;;6.50;;
22070;SDS011;11200;51.488;6.668;2022-12-07T05:03:46;6.70;;;6.03;;
22070;SDS011;11200;51.488;6.668;2022-12-07T05:06:12;6.82;;;6.03;;
22070;SDS011;11200;51.488;6.668;2022-12-07T05:08:38;8.63;;;6.63;;
22070;SDS011;11200;51.488;6.668;2022-12-07T05:11:05;8.10;;;6.28;;
22070;SDS011;11200;51.488;6.668;2022-12-07T05:13:32;7.32;;;6.40;;
22070;SDS011;11200;51.488;6.668;2022-12-07T05:15:58;8.27;;;6.20;;
22070;SDS011;11200;51.488;6.668;2022-12-07T05:18:24;7.38;;;6.18;;
22070;SDS011;11200;51.488;6.668;2022-12-07T05:20:50;7.22;;;6.30;;
22070;SDS011;11200;51.488;6.668;2022-12-07T05:23:16;7.68;;;6.53;;
22070;SDS011;11200;51.488;6.668;2022-12-07T05:25:42;9.55;;;6.70;;
22070;SDS011;11200;51.488;6.668;2022-12-07T05:28:09;7.40;;;6.43;;
22070;SDS011;11200;51.488;6.668;2022-12-07T05:30:35;7.45;;;6.38;;
22070;SDS011;11200;51.488;6.668;2022-12-07T05:33:01;7.60;;;6.10;;
22070;SDS011;11200;51.488;6.668;2022-12-07T05:35:27;6.93;;;6.22;;
22070;SDS011;11200;51.488;6.668;2022-12-07T05:37:53;8.00;;;6.40;;
22070;SDS011;11200;51.488;6.668;2022-12-07T05:40:19;7.38;;;5.90;;
22070;SDS011;11200;51.488;6.668;2022-12-07T05:42:45;8.13;;;6.45;;
22070;SDS011;11200;51.488;6.668;2022-12-07T05:45:10;8.57;;;6.60;;
22070;SDS011;11200;51.488;6.668;2022-12-07T05:47:36;7.00;;;5.97;;
22070;SDS011;11200;51.488;6.668;2022-12-07T05:50:02;6.47;;;5.80;;
22070;SDS011;11200;51.488;6.668;2022-12-07T05:52:30;8.63;;;6.28;;
22070;SDS011;11200;51.488;6.668;2022-12-07T05:54:56;7.18;;;6.13;;
22070;SDS011;11200;51.488;6.668;2022-12-07T05:57:22;6.15;;;5.53;;
22070;SDS011;11200;51.488;6.668;2022-12-07T05:59:47;7.43;;;6.07;;
22070;SDS011;11200;51.488;6.668;2022-12-07T06:02:14;8.38;;;6.15;;
22070;SDS011;11200;51.488;6.668;2022-12-07T06:04:42;7.63;;;5.80;;
22070;SDS011;11200;51.488;6.668;2022-12-07T06:07:10;7.78;;;5.75;;
22070;SDS011;11200;51.488;6.668;2022-12-07T06:09:40;7.15;;;6.35;;
22070;SDS011;11200;51.488;6.668;2022-12-07T06:12:06;7.10;;;6.07;;
22070;SDS011;11200;51.488;6.668;2022-12-07T06:14:50;8.13;;;5.90;;
22070;SDS011;11200;51.488;6.668;2022-12-07T06:17:16;8.15;;;6.13;;
22070;SDS011;11200;51.488;6.668;2022-12-07T06:19:41;6.35;;;5.57;;
22070;SDS011;11200;51.488;6.668;2022-12-07T06:22:08;6.93;;;6.10;;
22070;SDS011;11200;51.488;6.668;2022-12-07T06:24:35;7.07;;;5.80;;
22070;SDS011;11200;51.488;6.668;2022-12-07T06:27:01;6.45;;;5.80;;
22070;SDS011;11200;51.488;6.668;2022-12-07T06:29:26;6.15;;;5.40;;
22070;SDS011;11200;51.488;6.668;2022-12-07T06:31:52;7.32;;;5.78;;
22070;SDS011;11200;51.488;6.668;2022-12-07T06:34:20;6.40;;;5.70;;
22070;SDS011;11200;51.488;6.668;2022-12-07T06:36:50;6.43;;;5.40;;
22070;SDS011;11200;51.488;6.668;2022-12-07T06:39:18;7.68;;;5.70;;
22070;SDS011;11200;51.488;6.668;2022-12-07T06:41:45;7.93;;;5.28;;
22070;SDS011;11200;51.488;6.668;2022-12-07T06:44:10;7.38;;;5.63;;
22070;SDS011;11200;51.488;6.668;2022-12-07T06:46:36;6.22;;;5.35;;
22070;SDS011;11200;51.488;6.668;2022-12-07T06:49:03;7.40;;;5.30;;
22070;SDS011;11200;51.488;6.668;2022-12-07T06:51:29;6.13;;;5.40;;
22070;SDS011;11200;51.488;6.668;2022-12-07T06:53:55;7.78;;;6.03;;
22070;SDS011;11200;51.488;6.668;2022-12-07T06:56:20;6.47;;;5.63;;
22070;SDS011;11200;51.488;6.668;2022-12-07T06:58:50;6.28;;;5.07;;
22070;SDS011;11200;51.488;6.668;2022-12-07T07:01:18;5.75;;;5.15;;
22070;SDS011;11200;51.488;6.668;2022-12-07T07:03:44;5.95;;;5.03;;
22070;SDS011;11200;51.488;6.668;2022-12-07T07:06:13;6.85;;;5.35;;
22070;SDS011;11200;51.488;6.668;2022-12-07T07:08:40;6.10;;;5.22;;
22070;SDS011;11200;51.488;6.668;2022-12-07T07:11:08;5.88;;;5.13;;
22070;SDS011;11200;51.488;6.668;2022-12-07T07:13:37;7.50;;;5.07;;
22070;SDS011;11200;51.488;6.668;2022-12-07T07:16:06;8.25;;;5.30;;
22070;SDS011;11200;51.488;6.668;2022-12-07T07:18:32;5.75;;;4.68;;
22070;SDS011;11200;51.488;6.668;2022-12-07T07:21:00;5.57;;;4.85;;
22070;SDS011;11200;51.488;6.668;2022-12-07T07:23:29;5.53;;;4.88;;
22070;SDS011;11200;51.488;6.668;2022-12-07T07:25:54;5.85;;;4.72;;
22070;SDS011;11200;51.488;6.668;2022-12-07T07:28:23;5.85;;;4.93;;
22070;SDS011;11200;51.488;6.668;2022-12-07T07:30:51;6.47;;;5.05;;
22070;SDS011;11200;51.488;6.668;2022-12-07T07:33:17;5.78;;;4.78;;
22070;SDS011;11200;51.488;6.668;2022-12-07T07:35:48;5.38;;;4.70;;
22070;SDS011;11200;51.488;6.668;2022-12-07T07:38:16;6.15;;;5.07;;
22070;SDS011;11200;51.488;6.668;2022-12-07T07:40:42;5.72;;;4.95;;
22070;SDS011;11200;51.488;6.668;2022-12-07T07:43:10;5.75;;;5.03;;
22070;SDS011;11200;51.488;6.668;2022-12-07T07:45:39;5.15;;;4.45;;
22070;SDS011;11200;51.488;6.668;2022-12-07T07:48:05;5.90;;;4.90;;
22070;SDS011;11200;51.488;6.668;2022-12-07T07:50:35;5.15;;;4.65;;
22070;SDS011;11200;51.488;6.668;2022-12-07T07:53:01;5.80;;;4.75;;
22070;SDS011;11200;51.488;6.668;2022-12-07T07:55:29;4.88;;;4.38;;
22070;SDS011;11200;51.488;6.668;2022-12-07T07:57:54;5.25;;;4.55;;
22070;SDS011;11200;51.488;6.668;2022-12-07T08:00:29;5.97;;;4.75;;
22070;SDS011;11200;51.488;6.668;2022-12-07T08:02:55;5.45;;;4.63;;
22070;SDS011;11200;51.488;6.668;2022-12-07T08:05:23;6.10;;;4.88;;
22070;SDS011;11200;51.488;6.668;2022-12-07T08:07:49;5.10;;;4.47;;
22070;SDS011;11200;51.488;6.668;2022-12-07T08:10:14;6.18;;;4.80;;
22070;SDS011;11200;51.488;6.668;2022-12-07T08:12:41;6.07;;;4.93;;
22070;SDS011;11200;51.488;6.668;2022-12-07T08:15:27;5.97;;;4.82;;
22070;SDS011;11200;51.488;6.668;2022-12-07T08:17:54;5.97;;;4.80;;
22070;SDS011;11200;51.488;6.668;2022-12-07T08:20:23;5.30;;;4.50;;
22070;SDS011;11200;51.488;6.668;2022-12-07T08:22:51;4.93;;;4.40;;
22070;SDS011;11200;51.488;6.668;2022-12-07T08:25:17;5.28;;;4.78;;
22070;SDS011;11200;51.488;6.668;2022-12-07T08:27:43;5.35;;;4.43;;
22070;SDS011;11200;51.488;6.668;2022-12-07T08:30:11;5.78;;;4.82;;
22070;SDS011;11200;51.488;6.668;2022-12-07T08:32:39;6.45;;;4.50;;
22070;SDS011;11200;51.488;6.668;2022-12-07T08:35:05;4.85;;;4.00;;
22070;SDS011;11200;51.488;6.668;2022-12-07T08:37:33;5.32;;;4.28;;
22070;SDS011;11200;51.488;6.668;2022-12-07T08:39:59;5.13;;;4.30;;
22070;SDS011;11200;51.488;6.668;2022-12-07T08:42:32;5.22;;;4.10;;
22070;SDS011;11200;51.488;6.668;2022-12-07T08:45:05;5.53;;;4.10;;
22070;SDS011;11200;51.488;6.668;2022-12-07T08:47:33;5.07;;;4.50;;
22070;SDS011;11200;51.488;6.668;2022-12-07T08:50:04;5.35;;;4.50;;
22070;SDS011;11200;51.488;6.668;2022-12-07T08:52:32;5.68;;;4.50;;
22070;SDS011;11200;51.488;6.668;2022-12-07T08:54:58;5.10;;;4.38;;
22070;SDS011;11200;51.488;6.668;2022-12-07T08:57:26;5.50;;;4.40;;
22070;SDS011;11200;51.488;6.668;2022-12-07T08:59:53;6.63;;;4.72;;
22070;SDS011;11200;51.488;6.668;2022-12-07T09:02:19;5.40;;;4.50;;
22070;SDS011;11200;51.488;6.668;2022-12-07T09:04:44;6.40;;;4.57;;
22070;SDS011;11200;51.488;6.668;2022-12-07T09:07:10;6.05;;;4.57;;
22070;SDS011;11200;51.488;6.668;2022-12-07T09:09:39;6.95;;;4.32;;
22070;SDS011;11200;51.488;6.668;2022-12-07T09:12:04;6.13;;;4.47;;
22070;SDS011;11200;51.488;6.668;2022-12-07T09:14:30;6.07;;;4.38;;
22070;SDS011;11200;51.488;6.668;2022-12-07T09:17:11;7.68;;;4.90;;
22070;SDS011;11200;51.488;6.668;2022-12-07T09:19:37;6.07;;;4.60;;
22070;SDS011;11200;51.488;6.668;2022-12-07T09:22:03;5.78;;;4.35;;
22070;SDS011;11200;51.488;6.668;2022-12-07T09:24:30;6.25;;;4.60;;
22070;SDS011;11200;51.488;6.668;2022-12-07T09:26:56;6.60;;;4.95;;
22070;SDS011;11200;51.488;6.668;2022-12-07T09:29:23;6.30;;;4.85;;
22070;SDS011;11200;51.488;6.668;2022-12-07T09:31:48;6.13;;;4.60;;
22070;SDS011;11200;51.488;6.668;2022-12-07T09:34:16;5.97;;;4.15;;
22070;SDS011;11200;51.488;6.668;2022-12-07T09:36:42;7.90;;;4.78;;
22070;SDS011;11200;51.488;6.668;2022-12-07T09:39:08;6.57;;;4.95;;
22070;SDS011;11200;51.488;6.668;2022-12-07T09:41:34;6.95;;;5.38;;
22070;SDS011;11200;51.488;6.668;2022-12-07T09:44:05;6.10;;;5.50;;
22070;SDS011;11200;51.488;6.668;2022-12-07T09:46:35;7.40;;;5.68;;
22070;SDS011;11200;51.488;6.668;2022-12-07T09:49:03;6.35;;;5.45;;
22070;SDS011;11200;51.488;6.668;2022-12-07T09:51:30;6.65;;;5.80;;
22070;SDS011;11200;51.488;6.668;2022-12-07T09:53:56;7.03;;;5.32;;
22070;SDS011;11200;51.488;6.668;2022-12-07T09:56:23;6.20;;;5.20;;
22070;SDS011;11200;51.488;6.668;2022-12-07T09:58:49;6.43;;;5.05;;
22070;SDS011;11200;51.488;6.668;2022-12-07T10:01:20;6.90;;;5.07;;
22070;SDS011;11200;51.488;6.668;2022-12-07T10:03:50;6.40;;;4.75;;
22070;SDS011;11200;51.488;6.668;2022-12-07T10:06:21;5.55;;;4.50;;
22070;SDS011;11200;51.488;6.668;2022-12-07T10:08:48;5.78;;;4.50;;
22070;SDS011;11200;51.488;6.668;2022-12-07T10:11:14;6.13;;;4.43;;
22070;SDS011;11200;51.488;6.668;2022-12-07T10:13:45;5.88;;;4.80;;
22070;SDS011;11200;51.488;6.668;2022-12-07T10:19:18;5.88;;;4.10;;
22070;SDS011;11200;51.488;6.668;2022-12-07T10:24:36;6.03;;;4.00;;
22070;SDS011;11200;51.488;6.668;2022-12-07T10:27:04;5.60;;;4.07;;
22070;SDS011;11200;51.488;6.668;2022-12-07T10:29:42;5.05;;;3.70;;
22070;SDS011;11200;51.488;6.668;2022-12-07T10:34:44;4.00;;;3.60;;
22070;SDS011;11200;51.488;6.668;2022-12-07T10:42:15;4.72;;;3.45;;
22070;SDS011;11200;51.488;6.668;2022-12-07T10:44:49;6.30;;;3.70;;
22070;SDS011;11200;51.488;6.668;2022-12-07T10:53:05;4.72;;;3.28;;
22070;SDS011;11200;51.488;6.668;2022-12-07T11:01:31;3.95;;;2.85;;
22070;SDS011;11200;51.488;6.668;2022-12-07T11:06:33;5.80;;;2.80;;
22070;SDS011;11200;51.488;6.668;2022-12-07T11:12:06;4.47;;;2.92;;
22070;SDS011;11200;51.488;6.668;2022-12-07T11:17:45;5.05;;;3.08;;
22070;SDS011;11200;51.488;6.668;2022-12-07T11:20:29;5.18;;;3.22;;
22070;SDS011;11200;51.488;6.668;2022-12-07T11:23:11;4.03;;;3.03;;
22070;SDS011;11200;51.488;6.668;2022-12-07T11:25:40;5.97;;;3.33;;
22070;SDS011;11200;51.488;6.668;2022-12-07T11:31:18;3.60;;;3.20;;
22070;SDS011;11200;51.488;6.668;2022-12-07T11:36:53;6.95;;;3.20;;
22070;SDS011;11200;51.488;6.668;2022-12-07T11:39:28;4.93;;;3.08;;
22070;SDS011;11200;51.488;6.668;2022-12-07T11:42:15;4.50;;;3.22;;
22070;SDS011;11200;51.488;6.668;2022-12-07T11:45:00;5.75;;;3.20;;
22070;SDS011;11200;51.488;6.668;2022-12-07T11:52:58;4.75;;;2.80;;
22070;SDS011;11200;51.488;6.668;2022-12-07T11:55:57;3.50;;;2.90;;
22070;SDS011;11200;51.488;6.668;2022-12-07T12:06:39;5.85;;;2.88;;
22070;SDS011;11200;51.488;6.668;2022-12-07T12:09:16;6.18;;;3.20;;
22070;SDS011;11200;51.488;6.668;2022-12-07T12:14:36;4.72;;;3.00;;
22070;SDS011;11200;51.488;6.668;2022-12-07T12:19:42;4.90;;;2.90;;
22070;SDS011;11200;51.488;6.668;2022-12-07T12:22:34;3.38;;;2.63;;
22070;SDS011;11200;51.488;6.668;2022-12-07T12:25:05;3.15;;;2.85;;
22070;SDS011;11200;51.488;6.668;2022-12-07T12:27:36;7.20;;;3.05;;
22070;SDS011;11200;51.488;6.668;2022-12-07T12:30:04;5.70;;;3.10;;
22070;SDS011;11200;51.488;6.668;2022-12-07T12:35:33;4.07;;;2.60;;
22070;SDS011;11200;51.488;6.668;2022-12-07T12:40:58;5.28;;;2.75;;
22070;SDS011;11200;51.488;6.668;2022-12-07T12:43:43;4.18;;;2.85;;
22070;SDS011;11200;51.488;6.668;2022-12-07T12:51:48;4.63;;;2.45;;
22070;SDS011;11200;51.488;6.668;2022-12-07T12:59:29;6.13;;;2.60;;
22070;SDS011;11200;51.488;6.668;2022-12-07T13:04:57;2.80;;;2.15;;
22070;SDS011;11200;51.488;6.668;2022-12-07T13:18:24;3.22;;;2.40;;
22070;SDS011;11200;51.488;6.668;2022-12-07T13:26:16;4.28;;;2.30;;
22070;SDS011;11200;51.488;6.668;2022-12-07T13:31:38;3.25;;;2.38;;
22070;SDS011;11200;51.488;6.668;2022-12-07T13:34:05;3.72;;;2.30;;
22070;SDS011;11200;51.488;6.668;2022-12-07T13:36:49;4.95;;;2.40;;
22070;SDS011;11200;51.488;6.668;2022-12-07T13:39:20;4.82;;;2.67;;
22070;SDS011;11200;51.488;6.668;2022-12-07T13:41:52;3.95;;;2.20;;
22070;SDS011;11200;51.488;6.668;2022-12-07T13:44:22;3.05;;;1.80;;
22070;SDS011;11200;51.488;6.668;2022-12-07T13:49:24;3.67;;;2.00;;
22070;SDS011;11200;51.488;6.668;2022-12-07T13:51:52;4.35;;;2.30;;
22070;SDS011;11200;51.488;6.668;2022-12-07T13:54:21;3.08;;;1.92;;
22070;SDS011;11200;51.488;6.668;2022-12-07T13:56:48;3.08;;;2.28;;
22070;SDS011;11200;51.488;6.668;2022-12-07T13:59:22;3.65;;;1.98;;
22070;SDS011;11200;51.488;6.668;2022-12-07T14:01:50;2.70;;;1.95;;
22070;SDS011;11200;51.488;6.668;2022-12-07T14:04:36;3.17;;;2.08;;
22070;SDS011;11200;51.488;6.668;2022-12-07T14:10:02;2.70;;;1.73;;
22070;SDS011;11200;51.488;6.668;2022-12-07T14:12:30;3.33;;;2.00;;
22070;SDS011;11200;51.488;6.668;2022-12-07T14:14:57;3.97;;;1.90;;
22070;SDS011;11200;51.488;6.668;2022-12-07T14:17:25;4.20;;;1.92;;
22070;SDS011;11200;51.488;6.668;2022-12-07T14:22:30;3.25;;;1.83;;
22070;SDS011;11200;51.488;6.668;2022-12-07T14:25:00;3.88;;;2.03;;
22070;SDS011;11200;51.488;6.668;2022-12-07T14:27:38;3.60;;;1.90;;
22070;SDS011;11200;51.488;6.668;2022-12-07T14:30:04;3.28;;;1.80;;
22070;SDS011;11200;51.488;6.668;2022-12-07T14:32:30;3.10;;;1.70;;
22070;SDS011;11200;51.488;6.668;2022-12-07T14:35:18;3.58;;;2.13;;
22070;SDS011;11200;51.488;6.668;2022-12-07T14:37:43;4.20;;;1.65;;
22070;SDS011;11200;51.488;6.668;2022-12-07T14:40:15;2.95;;;1.70;;
22070;SDS011;11200;51.488;6.668;2022-12-07T14:42:46;3.63;;;2.05;;
22070;SDS011;11200;51.488;6.668;2022-12-07T14:45:16;3.25;;;2.00;;
22070;SDS011;11200;51.488;6.668;2022-12-07T14:47:44;3.40;;;2.05;;
22070;SDS011;11200;51.488;6.668;2022-12-07T14:50:14;4.63;;;1.90;;
22070;SDS011;11200;51.488;6.668;2022-12-07T14:52:43;2.65;;;1.48;;
22070;SDS011;11200;51.488;6.668;2022-12-07T14:55:30;3.42;;;1.65;;
22070;SDS011;11200;51.488;6.668;2022-12-07T14:57:56;3.42;;;1.67;;
22070;SDS011;11200;51.488;6.668;2022-12-07T15:00:23;2.33;;;1.60;;
22070;SDS011;11200;51.488;6.668;2022-12-07T15:02:50;2.22;;;1.70;;
22070;SDS011;11200;51.488;6.668;2022-12-07T15:05:17;3.60;;;1.70;;
22070;SDS011;11200;51.488;6.668;2022-12-07T15:07:44;2.65;;;1.90;;
22070;SDS011;11200;51.488;6.668;2022-12-07T15:10:18;3.10;;;1.45;;
22070;SDS011;11200;51.488;6.668;2022-12-07T15:12:48;2.50;;;1.70;;
22070;SDS011;11200;51.488;6.668;2022-12-07T15:15:14;2.78;;;1.85;;
22070;SDS011;11200;51.488;6.668;2022-12-07T15:17:40;2.85;;;1.52;;
22070;SDS011;11200;51.488;6.668;2022-12-07T15:20:08;2.28;;;1.60;;
22070;SDS011;11200;51.488;6.668;2022-12-07T15:22:41;3.47;;;1.70;;
22070;SDS011;11200;51.488;6.668;2022-12-07T15:25:08;2.55;;;1.58;;
22070;SDS011;11200;51.488;6.668;2022-12-07T15:27:37;2.63;;;1.42;;
22070;SDS011;11200;51.488;6.668;2022-12-07T15:30:03;2.70;;;1.73;;
22070;SDS011;11200;51.488;6.668;2022-12-07T15:32:29;3.45;;;1.70;;
22070;SDS011;11200;51.488;6.668;2022-12-07T15:34:54;3.35;;;1.70;;
22070;SDS011;11200;51.488;6.668;2022-12-07T15:37:20;2.35;;;1.40;;
22070;SDS011;11200;51.488;6.668;2022-12-07T15:39:45;2.35;;;1.40;;
22070;SDS011;11200;51.488;6.668;2022-12-07T15:42:11;2.83;;;1.92;;
22070;SDS011;11200;51.488;6.668;2022-12-07T15:44:37;3.15;;;1.90;;
22070;SDS011;11200;51.488;6.668;2022-12-07T15:47:21;3.15;;;1.70;;
22070;SDS011;11200;51.488;6.668;2022-12-07T15:49:46;2.50;;;1.73;;
22070;SDS011;11200;51.488;6.668;2022-12-07T15:52:12;2.13;;;1.50;;
22070;SDS011;11200;51.488;6.668;2022-12-07T15:54:38;2.42;;;1.55;;
22070;SDS011;11200;51.488;6.668;2022-12-07T15:57:03;2.20;;;1.60;;
22070;SDS011;11200;51.488;6.668;2022-12-07T15:59:29;2.13;;;1.45;;
22070;SDS011;11200;51.488;6.668;2022-12-07T16:01:55;2.35;;;1.63;;
22070;SDS011;11200;51.488;6.668;2022-12-07T16:04:21;3.75;;;1.98;;
22070;SDS011;11200;51.488;6.668;2022-12-07T16:06:46;2.65;;;1.52;;
22070;SDS011;11200;51.488;6.668;2022-12-07T16:09:12;1.90;;;1.55;;
22070;SDS011;11200;51.488;6.668;2022-12-07T16:11:38;4.18;;;1.70;;
22070;SDS011;11200;51.488;6.668;2022-12-07T16:14:03;2.15;;;1.50;;
22070;SDS011;11200;51.488;6.668;2022-12-07T16:16:29;3.42;;;1.55;;
22070;SDS011;11200;51.488;6.668;2022-12-07T16:18:55;3.70;;;1.75;;
22070;SDS011;11200;51.488;6.668;2022-12-07T16:21:21;2.22;;;1.65;;
22070;SDS011;11200;51.488;6.668;2022-12-07T16:23:47;2.55;;;1.60;;
22070;SDS011;11200;51.488;6.668;2022-12-07T16:26:14;3.63;;;1.77;;
22070;SDS011;11200;51.488;6.668;2022-12-07T16:28:41;2.78;;;1.75;;
22070;SDS011;11200;51.488;6.668;2022-12-07T16:31:08;3.58;;;1.73;;
22070;SDS011;11200;51.488;6.668;2022-12-07T16:33:35;2.88;;;1.67;;
22070;SDS011;11200;51.488;6.668;2022-12-07T16:36:03;2.67;;;1.60;;
22070;SDS011;11200;51.488;6.668;2022-12-07T16:38:30;3.92;;;1.63;;
22070;SDS011;11200;51.488;6.668;2022-12-07T16:40:56;2.75;;;1.35;;
22070;SDS011;11200;51.488;6.668;2022-12-07T16:43:21;3.17;;;1.58;;
22070;SDS011;11200;51.488;6.668;2022-12-07T16:45:47;5.45;;;1.77;;
22070;SDS011;11200;51.488;6.668;2022-12-07T16:48:14;2.80;;;1.70;;
22070;SDS011;11200;51.488;6.668;2022-12-07T16:50:40;2.92;;;1.85;;
22070;SDS011;11200;51.488;6.668;2022-12-07T16:53:07;2.42;;;1.70;;
22070;SDS011;11200;51.488;6.668;2022-12-07T16:55:41;3.40;;;1.80;;
22070;SDS011;11200;51.488;6.668;2022-12-07T16:58:08;3.17;;;1.70;;
22070;SDS011;11200;51.488;6.668;2022-12-07T17:00:35;4.18;;;1.70;;
22070;SDS011;11200;51.488;6.668;2022-12-07T17:03:01;2.55;;;1.58;;
22070;SDS011;11200;51.488;6.668;2022-12-07T17:05:28;3.38;;;1.65;;
22070;SDS011;11200;51.488;6.668;2022-12-07T17:07:54;2.25;;;1.58;;
22070;SDS011;11200;51.488;6.668;2022-12-07T17:10:21;1.92;;;1.60;;
22070;SDS011;11200;51.488;6.668;2022-12-07T17:12:47;2.40;;;1.70;;
22070;SDS011;11200;51.488;6.668;2022-12-07T17:15:13;2.05;;;1.70;;
22070;SDS011;11200;51.488;6.668;2022-12-07T17:17:45;2.88;;;1.73;;
22070;SDS011;11200;51.488;6.668;2022-12-07T17:20:15;2.38;;;1.73;;
22070;SDS011;11200;51.488;6.668;2022-12-07T17:22:42;2.35;;;1.60;;